sensor_id;sensor_type;location;lat;lon;timestamp;pressure;altitude;pressure_sealevel;temperature;humidity
10712;BME280;5407;51.234;6.804;2024-01-10T01:38:38;102344.16;;;-1.19;47.12
10712;BME280;5407;51.234;6.804;2024-01-10T04:30:11;102276.38;;;-2.03;49.07
10712;BME280;5407;51.234;6.804;2024-01-10T04:44:33;102273.72;;;-1.85;49.00
10712;BME280;5407;51.234;6.804;2024-01-10T06:22:10;102259.34;;;-2.07;49.01
10712;BME280;5407;51.234;6.804;2024-01-10T06:24:38;102276.38;;;-2.03;49.33
10712;BME280;5407;51.234;6.804;2024-01-10T06:27:06;102275.34;;;-2.02;49.03
10712;BME280;5407;51.234;6.804;2024-01-10T06:29:33;102271.59;;;-2.12;49.31
10712;BME280;5407;51.234;6.804;2024-01-10T06:32:00;102268.72;;;-2.11;49.23
10712;BME280;5407;51.234;6.804;2024-01-10T06:36:56;102269.31;;;-1.91;48.98
10712;BME280;5407;51.234;6.804;2024-01-10T06:39:24;102274.31;;;-1.83;49.27
10712;BME280;5407;51.234;6.804;2024-01-10T06:41:51;102272.94;;;-1.85;48.96
10712;BME280;5407;51.234;6.804;2024-01-10T06:44:18;102264.09;;;-1.97;49.41
10712;BME280;5407;51.234;6.804;2024-01-10T06:46:45;102268.59;;;-1.98;49.18
10712;BME280;5407;51.234;6.804;2024-01-10T06:49:12;102271.38;;;-1.93;49.60
10712;BME280;5407;51.234;6.804;2024-01-10T06:51:38;102270.50;;;-1.87;49.32
10712;BME280;5407;51.234;6.804;2024-01-10T06:54:05;102266.22;;;-1.88;49.12
10712;BME280;5407;51.234;6.804;2024-01-10T06:56:34;102263.44;;;-1.93;48.98
10712;BME280;5407;51.234;6.804;2024-01-10T06:59:01;102261.91;;;-2.18;49.95
10712;BME280;5407;51.234;6.804;2024-01-10T07:01:28;102264.78;;;-2.02;50.12
10712;BME280;5407;51.234;6.804;2024-01-10T07:03:55;102261.25;;;-1.96;50.13
10712;BME280;5407;51.234;6.804;2024-01-10T07:06:22;102261.22;;;-2.14;50.75
10712;BME280;5407;51.234;6.804;2024-01-10T07:08:49;102262.41;;;-2.10;50.51
10712;BME280;5407;51.234;6.804;2024-01-10T07:11:17;102264.75;;;-2.20;50.38
10712;BME280;5407;51.234;6.804;2024-01-10T07:13:46;102262.09;;;-2.20;50.55
10712;BME280;5407;51.234;6.804;2024-01-10T07:16:13;102255.06;;;-2.08;50.49
10712;BME280;5407;51.234;6.804;2024-01-10T07:18:41;102260.06;;;-2.00;50.61
10712;BME280;5407;51.234;6.804;2024-01-10T07:21:08;102252.59;;;-2.03;51.03
10712;BME280;5407;51.234;6.804;2024-01-10T07:23:36;102264.00;;;-2.09;50.75
10712;BME280;5407;51.234;6.804;2024-01-10T07:26:04;102252.00;;;-2.05;50.80
10712;BME280;5407;51.234;6.804;2024-01-10T07:28:31;102255.66;;;-2.06;50.57
10712;BME280;5407;51.234;6.804;2024-01-10T07:30:59;102265.81;;;-2.03;50.24
10712;BME280;5407;51.234;6.804;2024-01-10T07:33:27;102264.53;;;-2.00;50.49
10712;BME280;5407;51.234;6.804;2024-01-10T07:35:56;102265.81;;;-2.03;51.22
10712;BME280;5407;51.234;6.804;2024-01-10T07:38:23;102264.34;;;-1.99;50.71
10712;BME280;5407;51.234;6.804;2024-01-10T07:40:50;102263.66;;;-1.94;50.48
10712;BME280;5407;51.234;6.804;2024-01-10T07:43:17;102260.22;;;-1.95;50.38
10712;BME280;5407;51.234;6.804;2024-01-10T07:45:44;102267.63;;;-1.85;50.28
10712;BME280;5407;51.234;6.804;2024-01-10T07:48:12;102262.41;;;-1.92;50.49
10712;BME280;5407;51.234;6.804;2024-01-10T07:50:39;102269.91;;;-1.89;50.72
10712;BME280;5407;51.234;6.804;2024-01-10T07:53:05;102257.28;;;-2.05;50.96
10712;BME280;5407;51.234;6.804;2024-01-10T07:55:33;102258.28;;;-2.24;51.14
10712;BME280;5407;51.234;6.804;2024-01-10T07:58:00;102261.22;;;-2.14;51.12
10712;BME280;5407;51.234;6.804;2024-01-10T08:00:28;102259.63;;;-1.97;50.54
10712;BME280;5407;51.234;6.804;2024-01-10T08:02:56;102264.75;;;-1.84;50.47
10712;BME280;5407;51.234;6.804;2024-01-10T08:05:25;102258.13;;;-1.75;49.91
10712;BME280;5407;51.234;6.804;2024-01-10T08:07:52;102259.84;;;-1.80;50.14
10712;BME280;5407;51.234;6.804;2024-01-10T08:10:18;102264.16;;;-1.86;50.38
10712;BME280;5407;51.234;6.804;2024-01-10T08:12:45;102268.72;;;-1.75;50.34
10712;BME280;5407;51.234;6.804;2024-01-10T08:15:12;102275.16;;;-1.71;50.14
10712;BME280;5407;51.234;6.804;2024-01-10T08:17:39;102269.59;;;-1.81;50.27
10712;BME280;5407;51.234;6.804;2024-01-10T08:20:07;102273.13;;;-1.69;50.17
10712;BME280;5407;51.234;6.804;2024-01-10T08:22:37;102280.59;;;-1.66;50.39
10712;BME280;5407;51.234;6.804;2024-01-10T08:25:05;102287.38;;;-1.70;50.05
10712;BME280;5407;51.234;6.804;2024-01-10T08:27:32;102277.97;;;-1.66;50.41
10712;BME280;5407;51.234;6.804;2024-01-10T08:30:00;102280.09;;;-1.56;49.96
10712;BME280;5407;51.234;6.804;2024-01-10T08:32:30;102283.25;;;-1.48;49.97
10712;BME280;5407;51.234;6.804;2024-01-10T08:34:57;102293.59;;;-1.47;50.20
10712;BME280;5407;51.234;6.804;2024-01-10T08:37:23;102291.00;;;-1.35;49.68
10712;BME280;5407;51.234;6.804;2024-01-10T08:39:52;102296.75;;;-1.38;49.47
10712;BME280;5407;51.234;6.804;2024-01-10T08:42:18;102289.06;;;-1.28;49.10
10712;BME280;5407;51.234;6.804;2024-01-10T08:44:45;102290.56;;;-1.32;49.48
10712;BME280;5407;51.234;6.804;2024-01-10T08:47:12;102289.03;;;-1.10;49.13
10712;BME280;5407;51.234;6.804;2024-01-10T08:49:39;102295.06;;;-1.03;48.95
10712;BME280;5407;51.234;6.804;2024-01-10T08:52:06;102298.19;;;-0.83;48.34
10712;BME280;5407;51.234;6.804;2024-01-10T08:54:33;102297.91;;;-1.05;47.91
10712;BME280;5407;51.234;6.804;2024-01-10T08:57:02;102303.41;;;-0.77;47.44
10712;BME280;5407;51.234;6.804;2024-01-10T08:59:29;102302.75;;;-0.61;47.54
10712;BME280;5407;51.234;6.804;2024-01-10T09:01:56;102303.69;;;-0.55;46.73
10712;BME280;5407;51.234;6.804;2024-01-10T09:04:22;102304.75;;;-0.45;46.37
10712;BME280;5407;51.234;6.804;2024-01-10T09:06:51;102304.38;;;-0.25;46.20
10712;BME280;5407;51.234;6.804;2024-01-10T09:09:18;102311.88;;;0.00;45.54
10712;BME280;5407;51.234;6.804;2024-01-10T09:11:46;102309.13;;;0.46;43.90
10712;BME280;5407;51.234;6.804;2024-01-10T09:14:15;102310.69;;;0.70;43.38
10712;BME280;5407;51.234;6.804;2024-01-10T09:16:41;102319.84;;;1.68;41.27
10712;BME280;5407;51.234;6.804;2024-01-10T09:19:08;102312.25;;;1.76;40.70
10712;BME280;5407;51.234;6.804;2024-01-10T09:21:35;102311.94;;;1.40;40.43
10712;BME280;5407;51.234;6.804;2024-01-10T09:24:02;102321.09;;;2.15;40.13
10712;BME280;5407;51.234;6.804;2024-01-10T09:26:30;102325.97;;;3.13;38.37
10712;BME280;5407;51.234;6.804;2024-01-10T09:28:57;102328.94;;;4.21;36.97
10712;BME280;5407;51.234;6.804;2024-01-10T09:31:26;102326.44;;;4.61;35.71
10712;BME280;5407;51.234;6.804;2024-01-10T09:33:52;102324.31;;;4.07;35.90
10712;BME280;5407;51.234;6.804;2024-01-10T09:36:19;102326.28;;;4.26;35.70
10712;BME280;5407;51.234;6.804;2024-01-10T09:38:46;102331.91;;;4.96;35.45
10712;BME280;5407;51.234;6.804;2024-01-10T09:41:13;102335.38;;;4.96;34.61
10712;BME280;5407;51.234;6.804;2024-01-10T09:43:41;102334.88;;;4.33;35.31
10712;BME280;5407;51.234;6.804;2024-01-10T09:46:08;102335.59;;;4.75;34.94
10712;BME280;5407;51.234;6.804;2024-01-10T09:48:37;102346.88;;;6.41;33.62
10712;BME280;5407;51.234;6.804;2024-01-10T09:51:04;102342.19;;;7.25;32.02
10712;BME280;5407;51.234;6.804;2024-01-10T09:53:31;102341.66;;;7.23;31.23
10712;BME280;5407;51.234;6.804;2024-01-10T09:56:03;102342.75;;;8.41;30.69
10712;BME280;5407;51.234;6.804;2024-01-10T09:58:31;102351.38;;;8.84;29.43
10712;BME280;5407;51.234;6.804;2024-01-10T10:01:04;102346.59;;;8.06;30.23
10712;BME280;5407;51.234;6.804;2024-01-10T10:03:36;102348.69;;;9.21;29.63
10712;BME280;5407;51.234;6.804;2024-01-10T10:06:06;102343.09;;;10.00;28.37
10712;BME280;5407;51.234;6.804;2024-01-10T10:08:33;102346.88;;;10.58;27.41
10712;BME280;5407;51.234;6.804;2024-01-10T10:10:59;102340.47;;;9.31;28.40
10712;BME280;5407;51.234;6.804;2024-01-10T10:13:27;102346.75;;;8.67;28.61
10712;BME280;5407;51.234;6.804;2024-01-10T10:15:58;102335.38;;;6.94;30.06
10712;BME280;5407;51.234;6.804;2024-01-10T10:18:26;102325.75;;;5.05;33.60
10712;BME280;5407;51.234;6.804;2024-01-10T10:21:09;102335.56;;;6.59;31.72
10712;BME280;5407;51.234;6.804;2024-01-10T10:23:38;102338.78;;;7.48;30.40
10712;BME280;5407;51.234;6.804;2024-01-10T10:26:10;102338.25;;;7.79;30.11
10712;BME280;5407;51.234;6.804;2024-01-10T10:28:40;102342.56;;;9.16;29.03
10712;BME280;5407;51.234;6.804;2024-01-10T10:31:07;102350.34;;;10.85;27.17
10712;BME280;5407;51.234;6.804;2024-01-10T10:33:34;102356.22;;;10.20;27.13
10712;BME280;5407;51.234;6.804;2024-01-10T10:36:01;102351.03;;;10.10;26.40
10712;BME280;5407;51.234;6.804;2024-01-10T10:38:30;102347.31;;;10.19;26.07
10712;BME280;5407;51.234;6.804;2024-01-10T10:40:58;102343.16;;;10.27;25.45
10712;BME280;5407;51.234;6.804;2024-01-10T10:43:25;102343.53;;;9.75;26.07
10712;BME280;5407;51.234;6.804;2024-01-10T10:45:53;102349.78;;;10.48;25.38
10712;BME280;5407;51.234;6.804;2024-01-10T10:48:21;102343.69;;;11.05;25.13
10712;BME280;5407;51.234;6.804;2024-01-10T10:51:03;102343.88;;;10.32;25.12
10712;BME280;5407;51.234;6.804;2024-01-10T10:53:34;102329.81;;;9.72;26.30
10712;BME280;5407;51.234;6.804;2024-01-10T10:56:03;102325.75;;;9.42;26.38
10712;BME280;5407;51.234;6.804;2024-01-10T10:58:33;102325.31;;;9.35;26.55
10712;BME280;5407;51.234;6.804;2024-01-10T11:01:03;102324.09;;;9.92;26.27
10712;BME280;5407;51.234;6.804;2024-01-10T11:03:34;102327.22;;;9.53;25.94
10712;BME280;5407;51.234;6.804;2024-01-10T11:06:03;102335.06;;;8.53;26.94
10712;BME280;5407;51.234;6.804;2024-01-10T11:08:35;102336.59;;;8.12;27.77
10712;BME280;5407;51.234;6.804;2024-01-10T11:11:04;102331.56;;;8.05;27.92
10712;BME280;5407;51.234;6.804;2024-01-10T11:13:46;102325.78;;;8.45;27.71
10712;BME280;5407;51.234;6.804;2024-01-10T11:16:39;102333.91;;;9.00;26.43
10712;BME280;5407;51.234;6.804;2024-01-10T11:19:30;102326.19;;;8.75;26.85
10712;BME280;5407;51.234;6.804;2024-01-10T11:22:15;102329.56;;;8.16;27.42
10712;BME280;5407;51.234;6.804;2024-01-10T11:24:47;102319.91;;;7.58;28.34
10712;BME280;5407;51.234;6.804;2024-01-10T11:27:14;102313.56;;;6.62;29.49
10712;BME280;5407;51.234;6.804;2024-01-10T11:29:42;102315.63;;;5.97;30.46
10712;BME280;5407;51.234;6.804;2024-01-10T11:32:14;102314.81;;;6.06;30.89
10712;BME280;5407;51.234;6.804;2024-01-10T11:34:49;102308.88;;;6.24;30.65
10712;BME280;5407;51.234;6.804;2024-01-10T11:37:16;102308.31;;;7.91;29.12
10712;BME280;5407;51.234;6.804;2024-01-10T11:39:44;102311.19;;;10.61;26.22
10712;BME280;5407;51.234;6.804;2024-01-10T11:42:21;102311.03;;;12.02;23.83
10712;BME280;5407;51.234;6.804;2024-01-10T11:44:49;102321.19;;;13.42;22.88
10712;BME280;5407;51.234;6.804;2024-01-10T11:47:16;102322.00;;;13.09;22.43
10712;BME280;5407;51.234;6.804;2024-01-10T11:49:55;102315.00;;;12.05;23.17
10712;BME280;5407;51.234;6.804;2024-01-10T11:52:22;102309.25;;;11.10;23.81
10712;BME280;5407;51.234;6.804;2024-01-10T11:54:49;102308.72;;;10.86;24.73
10712;BME280;5407;51.234;6.804;2024-01-10T11:57:22;102312.97;;;12.10;23.87
10712;BME280;5407;51.234;6.804;2024-01-10T11:59:53;102306.19;;;8.81;26.27
10712;BME280;5407;51.234;6.804;2024-01-10T12:02:21;102297.31;;;9.68;25.65
10712;BME280;5407;51.234;6.804;2024-01-10T12:04:49;102301.75;;;9.27;26.09
10712;BME280;5407;51.234;6.804;2024-01-10T12:07:17;102291.91;;;11.47;24.40
10712;BME280;5407;51.234;6.804;2024-01-10T12:09:44;102295.09;;;10.02;25.43
10712;BME280;5407;51.234;6.804;2024-01-10T12:12:12;102288.47;;;8.39;27.17
10712;BME280;5407;51.234;6.804;2024-01-10T12:14:40;102290.03;;;7.93;27.73
10712;BME280;5407;51.234;6.804;2024-01-10T12:17:08;102284.50;;;7.79;28.20
10712;BME280;5407;51.234;6.804;2024-01-10T12:19:36;102279.66;;;7.53;28.32
10712;BME280;5407;51.234;6.804;2024-01-10T12:22:03;102287.59;;;7.01;29.23
10712;BME280;5407;51.234;6.804;2024-01-10T12:24:31;102277.78;;;6.28;30.46
10712;BME280;5407;51.234;6.804;2024-01-10T12:26:58;102277.25;;;6.21;30.85
10712;BME280;5407;51.234;6.804;2024-01-10T12:29:25;102271.91;;;6.16;31.16
10712;BME280;5407;51.234;6.804;2024-01-10T12:31:54;102270.16;;;5.42;31.87
10712;BME280;5407;51.234;6.804;2024-01-10T12:34:21;102283.78;;;5.06;32.79
10712;BME280;5407;51.234;6.804;2024-01-10T12:36:48;102272.47;;;4.69;33.31
10712;BME280;5407;51.234;6.804;2024-01-10T12:39:15;102268.50;;;4.05;34.48
10712;BME280;5407;51.234;6.804;2024-01-10T12:41:42;102274.44;;;4.17;34.68
10712;BME280;5407;51.234;6.804;2024-01-10T12:44:10;102272.94;;;3.90;34.81
10712;BME280;5407;51.234;6.804;2024-01-10T12:46:49;102276.28;;;3.70;35.74
10712;BME280;5407;51.234;6.804;2024-01-10T12:49:17;102280.06;;;3.74;35.89
10712;BME280;5407;51.234;6.804;2024-01-10T12:51:44;102274.50;;;3.44;36.36
10712;BME280;5407;51.234;6.804;2024-01-10T12:54:11;102270.91;;;3.65;36.12
10712;BME280;5407;51.234;6.804;2024-01-10T12:56:38;102276.88;;;3.41;37.01
10712;BME280;5407;51.234;6.804;2024-01-10T12:59:04;102271.63;;;3.19;37.62
10712;BME280;5407;51.234;6.804;2024-01-10T13:01:31;102272.53;;;3.30;37.69
10712;BME280;5407;51.234;6.804;2024-01-10T13:03:58;102278.50;;;3.10;38.10
10712;BME280;5407;51.234;6.804;2024-01-10T13:06:26;102280.56;;;3.35;37.52
10712;BME280;5407;51.234;6.804;2024-01-10T13:08:53;102275.91;;;3.20;37.93
10712;BME280;5407;51.234;6.804;2024-01-10T13:11:20;102274.66;;;3.28;37.62
10712;BME280;5407;51.234;6.804;2024-01-10T13:13:47;102279.66;;;3.24;37.93
10712;BME280;5407;51.234;6.804;2024-01-10T13:16:14;102276.97;;;3.19;38.12
10712;BME280;5407;51.234;6.804;2024-01-10T13:18:41;102281.19;;;3.15;38.05
10712;BME280;5407;51.234;6.804;2024-01-10T13:21:07;102274.47;;;2.82;39.08
10712;BME280;5407;51.234;6.804;2024-01-10T13:23:37;102269.13;;;2.55;40.14
10712;BME280;5407;51.234;6.804;2024-01-10T13:26:04;102275.16;;;2.72;39.96
10712;BME280;5407;51.234;6.804;2024-01-10T13:28:31;102272.25;;;2.74;40.20
10712;BME280;5407;51.234;6.804;2024-01-10T13:30:57;102271.13;;;2.43;40.73
10712;BME280;5407;51.234;6.804;2024-01-10T13:33:24;102265.97;;;2.37;41.54
10712;BME280;5407;51.234;6.804;2024-01-10T13:35:52;102277.84;;;2.51;41.60
10712;BME280;5407;51.234;6.804;2024-01-10T13:38:19;102277.78;;;2.46;41.49
10712;BME280;5407;51.234;6.804;2024-01-10T13:40:47;102273.97;;;2.37;41.62
10712;BME280;5407;51.234;6.804;2024-01-10T13:43:14;102280.16;;;2.21;42.56
10712;BME280;5407;51.234;6.804;2024-01-10T13:45:41;102277.94;;;2.13;42.72
10712;BME280;5407;51.234;6.804;2024-01-10T13:48:08;102282.31;;;2.24;42.22
10712;BME280;5407;51.234;6.804;2024-01-10T13:50:35;102277.69;;;2.36;41.96
10712;BME280;5407;51.234;6.804;2024-01-10T13:53:03;102286.03;;;2.23;42.33
10712;BME280;5407;51.234;6.804;2024-01-10T13:55:30;102278.22;;;2.38;42.07
10712;BME280;5407;51.234;6.804;2024-01-10T13:57:58;102283.25;;;2.34;42.14
10712;BME280;5407;51.234;6.804;2024-01-10T14:00:25;102283.25;;;2.56;42.01
10712;BME280;5407;51.234;6.804;2024-01-10T14:02:53;102282.00;;;2.42;42.29
10712;BME280;5407;51.234;6.804;2024-01-10T14:05:25;102293.47;;;2.42;42.47
10712;BME280;5407;51.234;6.804;2024-01-10T14:07:52;102290.94;;;2.52;41.92
10712;BME280;5407;51.234;6.804;2024-01-10T14:10:19;102300.41;;;2.65;42.14
10712;BME280;5407;51.234;6.804;2024-01-10T14:12:46;102287.22;;;2.53;42.47
10712;BME280;5407;51.234;6.804;2024-01-10T14:15:14;102287.09;;;2.65;42.60
10712;BME280;5407;51.234;6.804;2024-01-10T14:17:41;102286.59;;;2.46;42.86
10712;BME280;5407;51.234;6.804;2024-01-10T14:20:08;102294.53;;;2.63;42.01
10712;BME280;5407;51.234;6.804;2024-01-10T14:22:35;102296.13;;;2.64;41.94
10712;BME280;5407;51.234;6.804;2024-01-10T14:25:02;102299.91;;;2.68;42.04
10712;BME280;5407;51.234;6.804;2024-01-10T14:27:31;102299.28;;;2.61;42.27
10712;BME280;5407;51.234;6.804;2024-01-10T14:29:57;102294.56;;;2.68;42.36
10712;BME280;5407;51.234;6.804;2024-01-10T14:32:26;102296.78;;;2.76;42.12
10712;BME280;5407;51.234;6.804;2024-01-10T14:34:53;102295.13;;;2.70;42.26
10712;BME280;5407;51.234;6.804;2024-01-10T14:37:20;102296.78;;;2.76;42.12
10712;BME280;5407;51.234;6.804;2024-01-10T14:39:47;102300.00;;;2.78;42.05
10712;BME280;5407;51.234;6.804;2024-01-10T14:42:14;102302.88;;;2.50;42.51
10712;BME280;5407;51.234;6.804;2024-01-10T14:44:40;102306.09;;;2.52;42.98
10712;BME280;5407;51.234;6.804;2024-01-10T14:47:07;102296.13;;;2.42;43.32
10712;BME280;5407;51.234;6.804;2024-01-10T14:49:35;102297.44;;;2.40;43.08
10712;BME280;5407;51.234;6.804;2024-01-10T14:52:02;102295.88;;;2.44;43.29
10712;BME280;5407;51.234;6.804;2024-01-10T14:54:29;102298.53;;;2.44;43.39
10712;BME280;5407;51.234;6.804;2024-01-10T14:56:56;102302.13;;;2.33;43.55
10712;BME280;5407;51.234;6.804;2024-01-10T14:59:23;102302.75;;;2.40;43.39
10712;BME280;5407;51.234;6.804;2024-01-10T15:01:51;102295.69;;;2.29;43.78
10712;BME280;5407;51.234;6.804;2024-01-10T15:04:17;102287.88;;;2.44;43.58
10712;BME280;5407;51.234;6.804;2024-01-10T15:06:46;102293.41;;;2.37;43.96
10712;BME280;5407;51.234;6.804;2024-01-10T15:09:13;102292.47;;;2.27;44.12
10712;BME280;5407;51.234;6.804;2024-01-10T15:11:40;102295.06;;;2.22;43.97
10712;BME280;5407;51.234;6.804;2024-01-10T15:14:07;102295.56;;;2.19;44.24
10712;BME280;5407;51.234;6.804;2024-01-10T15:16:34;102290.41;;;2.12;44.17
10712;BME280;5407;51.234;6.804;2024-01-10T15:19:01;102285.41;;;2.16;44.38
10712;BME280;5407;51.234;6.804;2024-01-10T15:21:28;102287.03;;;2.17;44.51
10712;BME280;5407;51.234;6.804;2024-01-10T15:23:56;102296.56;;;2.13;44.89
10712;BME280;5407;51.234;6.804;2024-01-10T15:26:23;102295.44;;;2.09;44.66
10712;BME280;5407;51.234;6.804;2024-01-10T15:28:50;102309.00;;;2.07;45.21
10712;BME280;5407;51.234;6.804;2024-01-10T15:31:20;102303.34;;;2.04;45.05
10712;BME280;5407;51.234;6.804;2024-01-10T15:33:47;102298.50;;;2.01;45.13
10712;BME280;5407;51.234;6.804;2024-01-10T15:36:14;102280.94;;;2.00;45.31
10712;BME280;5407;51.234;6.804;2024-01-10T15:38:41;102293.38;;;1.94;45.60
10712;BME280;5407;51.234;6.804;2024-01-10T15:41:10;102295.78;;;1.96;45.88
10712;BME280;5407;51.234;6.804;2024-01-10T15:43:37;102308.28;;;1.95;45.56
10712;BME280;5407;51.234;6.804;2024-01-10T15:46:05;102305.88;;;1.94;45.64
10712;BME280;5407;51.234;6.804;2024-01-10T15:48:33;102316.28;;;1.95;45.91
10712;BME280;5407;51.234;6.804;2024-01-10T15:51:00;102315.94;;;1.92;45.75
10712;BME280;5407;51.234;6.804;2024-01-10T15:53:27;102315.16;;;1.91;46.06
10712;BME280;5407;51.234;6.804;2024-01-10T15:55:54;102319.09;;;1.89;45.80
10712;BME280;5407;51.234;6.804;2024-01-10T15:58:22;102318.53;;;1.87;45.87
10712;BME280;5407;51.234;6.804;2024-01-10T16:00:50;102321.13;;;1.82;46.07
10712;BME280;5407;51.234;6.804;2024-01-10T16:03:17;102317.09;;;1.79;46.02
10712;BME280;5407;51.234;6.804;2024-01-10T16:05:43;102316.84;;;1.81;46.11
10712;BME280;5407;51.234;6.804;2024-01-10T16:08:10;102314.59;;;1.73;46.39
10712;BME280;5407;51.234;6.804;2024-01-10T16:10:37;102323.38;;;1.73;46.41
10712;BME280;5407;51.234;6.804;2024-01-10T16:13:05;102317.75;;;1.70;46.12
10712;BME280;5407;51.234;6.804;2024-01-10T16:15:33;102326.13;;;1.62;46.04
10712;BME280;5407;51.234;6.804;2024-01-10T16:18:00;102317.19;;;1.68;45.95
10712;BME280;5407;51.234;6.804;2024-01-10T16:20:27;102311.81;;;1.63;46.30
10712;BME280;5407;51.234;6.804;2024-01-10T16:22:54;102321.13;;;1.65;45.91
10712;BME280;5407;51.234;6.804;2024-01-10T16:25:21;102324.84;;;1.64;46.08
10712;BME280;5407;51.234;6.804;2024-01-10T16:27:48;102329.38;;;1.64;46.30
10712;BME280;5407;51.234;6.804;2024-01-10T16:30:15;102321.84;;;1.61;46.11
10712;BME280;5407;51.234;6.804;2024-01-10T16:32:43;102321.78;;;1.56;46.36
10712;BME280;5407;51.234;6.804;2024-01-10T16:35:10;102328.78;;;1.62;45.86
10712;BME280;5407;51.234;6.804;2024-01-10T16:37:37;102327.50;;;1.64;46.21
10712;BME280;5407;51.234;6.804;2024-01-10T16:40:04;102330.66;;;1.61;46.32
10712;BME280;5407;51.234;6.804;2024-01-10T16:42:32;102331.91;;;1.59;46.48
10712;BME280;5407;51.234;6.804;2024-01-10T16:45:01;102325.00;;;1.58;46.16
10712;BME280;5407;51.234;6.804;2024-01-10T16:47:29;102333.31;;;1.61;48.26
10712;BME280;5407;51.234;6.804;2024-01-10T16:49:57;102329.59;;;1.62;48.01
10712;BME280;5407;51.234;6.804;2024-01-10T16:52:24;102325.19;;;1.68;47.74
10712;BME280;5407;51.234;6.804;2024-01-10T16:54:51;102326.88;;;1.74;47.85
10712;BME280;5407;51.234;6.804;2024-01-10T16:57:18;102329.19;;;1.70;47.78
10712;BME280;5407;51.234;6.804;2024-01-10T16:59:45;102336.69;;;1.73;47.51
10712;BME280;5407;51.234;6.804;2024-01-10T17:02:12;102332.75;;;1.76;47.51
10712;BME280;5407;51.234;6.804;2024-01-10T17:04:38;102337.25;;;1.75;47.37
10712;BME280;5407;51.234;6.804;2024-01-10T17:07:07;102342.34;;;1.77;48.05
10712;BME280;5407;51.234;6.804;2024-01-10T17:09:38;102333.38;;;1.83;47.81
10712;BME280;5407;51.234;6.804;2024-01-10T17:12:05;102335.97;;;1.78;48.13
10712;BME280;5407;51.234;6.804;2024-01-10T17:14:32;102333.53;;;1.76;47.98
10712;BME280;5407;51.234;6.804;2024-01-10T17:16:59;102333.22;;;1.73;47.47
10712;BME280;5407;51.234;6.804;2024-01-10T17:19:26;102335.34;;;1.71;47.58
10712;BME280;5407;51.234;6.804;2024-01-10T17:21:53;102340.16;;;1.74;47.71
10712;BME280;5407;51.234;6.804;2024-01-10T17:24:21;102340.09;;;1.69;47.29
10712;BME280;5407;51.234;6.804;2024-01-10T17:26:48;102332.03;;;1.64;47.27
10712;BME280;5407;51.234;6.804;2024-01-10T17:29:15;102334.78;;;1.69;47.48
10712;BME280;5407;51.234;6.804;2024-01-10T17:31:41;102336.53;;;1.63;47.88
10712;BME280;5407;51.234;6.804;2024-01-10T17:34:08;102339.03;;;1.70;47.77
10712;BME280;5407;51.234;6.804;2024-01-10T17:36:35;102342.75;;;1.69;48.36
10712;BME280;5407;51.234;6.804;2024-01-10T17:39:03;102335.81;;;1.68;48.31
10712;BME280;5407;51.234;6.804;2024-01-10T17:41:31;102335.81;;;1.68;48.33
10712;BME280;5407;51.234;6.804;2024-01-10T17:43:58;102333.94;;;1.68;48.46
10712;BME280;5407;51.234;6.804;2024-01-10T17:46:25;102337.25;;;1.59;47.71
10712;BME280;5407;51.234;6.804;2024-01-10T17:48:52;102337.56;;;1.62;47.61
10712;BME280;5407;51.234;6.804;2024-01-10T17:51:19;102337.09;;;1.65;47.29
10712;BME280;5407;51.234;6.804;2024-01-10T17:53:47;102337.56;;;1.62;47.41
10712;BME280;5407;51.234;6.804;2024-01-10T17:56:15;102339.81;;;1.54;47.24
10712;BME280;5407;51.234;6.804;2024-01-10T17:58:43;102343.53;;;1.53;47.91
10712;BME280;5407;51.234;6.804;2024-01-10T18:01:10;102336.78;;;1.45;48.22
10712;BME280;5407;51.234;6.804;2024-01-10T18:03:37;102339.50;;;1.50;48.20
10712;BME280;5407;51.234;6.804;2024-01-10T18:06:04;102341.84;;;1.47;47.77
10712;BME280;5407;51.234;6.804;2024-01-10T18:08:31;102336.91;;;1.39;48.50
10712;BME280;5407;51.234;6.804;2024-01-10T18:10:58;102348.69;;;1.43;48.66
10712;BME280;5407;51.234;6.804;2024-01-10T18:13:25;102344.97;;;1.44;48.56
10712;BME280;5407;51.234;6.804;2024-01-10T18:15:53;102355.06;;;1.42;48.23
10712;BME280;5407;51.234;6.804;2024-01-10T18:18:20;102351.41;;;1.32;48.95
10712;BME280;5407;51.234;6.804;2024-01-10T18:20:47;102352.53;;;1.36;48.59
10712;BME280;5407;51.234;6.804;2024-01-10T18:23:14;102358.91;;;1.35;48.73
10712;BME280;5407;51.234;6.804;2024-01-10T18:25:41;102366.75;;;1.41;48.85
10712;BME280;5407;51.234;6.804;2024-01-10T18:28:08;102360.75;;;1.34;48.94
10712;BME280;5407;51.234;6.804;2024-01-10T18:30:34;102371.72;;;1.38;48.86
10712;BME280;5407;51.234;6.804;2024-01-10T18:33:03;102370.28;;;1.30;49.28
10712;BME280;5407;51.234;6.804;2024-01-10T18:35:30;102375.09;;;1.33;48.91
10712;BME280;5407;51.234;6.804;2024-01-10T18:37:57;102377.03;;;1.21;49.19
10712;BME280;5407;51.234;6.804;2024-01-10T18:40:25;102378.63;;;1.22;49.49
10712;BME280;5407;51.234;6.804;2024-01-10T18:42:52;102380.91;;;1.30;49.11
10712;BME280;5407;51.234;6.804;2024-01-10T18:45:20;102380.81;;;1.25;49.27
10712;BME280;5407;51.234;6.804;2024-01-10T18:47:48;102379.25;;;1.13;49.64
10712;BME280;5407;51.234;6.804;2024-01-10T18:50:16;102386.31;;;1.07;49.73
10712;BME280;5407;51.234;6.804;2024-01-10T18:52:44;102392.56;;;1.01;50.00
10712;BME280;5407;51.234;6.804;2024-01-10T18:55:11;102399.91;;;1.22;49.39
10712;BME280;5407;51.234;6.804;2024-01-10T18:57:38;102400.03;;;1.16;49.55
10712;BME280;5407;51.234;6.804;2024-01-10T19:00:05;102398.28;;;1.21;49.22
10712;BME280;5407;51.234;6.804;2024-01-10T19:02:34;102403.03;;;1.19;49.67
10712;BME280;5407;51.234;6.804;2024-01-10T19:05:02;102402.56;;;1.22;49.40
10712;BME280;5407;51.234;6.804;2024-01-10T19:07:31;102407.31;;;1.20;49.20
10712;BME280;5407;51.234;6.804;2024-01-10T19:09:57;102409.41;;;1.18;49.48
10712;BME280;5407;51.234;6.804;2024-01-10T19:12:24;102413.97;;;1.23;49.70
10712;BME280;5407;51.234;6.804;2024-01-10T19:14:52;102405.69;;;1.19;49.62
10712;BME280;5407;51.234;6.804;2024-01-10T19:17:20;102410.09;;;1.14;49.37
10712;BME280;5407;51.234;6.804;2024-01-10T19:19:47;102415.03;;;1.22;49.31
10712;BME280;5407;51.234;6.804;2024-01-10T19:22:14;102415.38;;;1.25;49.19
10712;BME280;5407;51.234;6.804;2024-01-10T19:24:42;102412.63;;;1.20;49.50
10712;BME280;5407;51.234;6.804;2024-01-10T19:27:09;102411.56;;;1.21;49.39